x

Venice, Fl (venf1) Weather Station

6:00am - Sun 20th Apr 2014 All times are EDT. -4 hours from GMT.

  • Wind
    5mph, 6mph gusts
  • Sea Temp 73°f
  • Air Temp 64°f
  • Sea Pressure 1015.4mb
  • Venice, Fl
  • Venice, Fl

More Historic Weather Station data

Upgrade to MSW Pro to gain access to the past 30 days of data for over 8000 Wavebouys and Weather Stations around the globe.

Join Pro

Comparision Forecast

View Surf forecast
   
Sun 04/20 6:00am 5 6 mph 1015.4mb 73f 64f
5:00am 5 6 mph 1015.1mb 73f 63f
4:00am 5
mph
1015mb 73f 64f
3:00am 6 7 mph 1015.1mb 73f 65f
2:00am 8 10 mph 1015.6mb 73f 64f
1:00am 17 20 mph 1016mb 73f 65f
12:00am 21 23 mph 1015.8mb 73f 66f
Sat 04/19 11:00pm 18 21 mph 1015.6mb 73f 67f
10:00pm 17 18 mph 1015.2mb 73f 66f
9:00pm 18 21 mph 1015mb 74f 67f
8:00pm 21 23 mph 1014.7mb 74f 66f
7:00pm 18 22 mph 1014.4mb 74f 67f
6:00pm 21 23 mph 1014.2mb 74f 67f
5:00pm 20 22 mph 1013.5mb 74f 68f
4:00pm 18 21 mph 1013.6mb 74f 68f
3:00pm 18 21 mph 1013.9mb 74f 69f
2:00pm 23 25 mph 1014.3mb 74f 69f
1:00pm 22 25 mph 1014.4mb 74f 70f
12:00pm 20 22 mph 1014.7mb 74f 69f
11:00am 18 21 mph 1014.8mb 73f 69f
10:00am 18 23 mph 1014.5mb 73f 69f
9:00am 22 24 mph 1014.3mb 73f 69f
8:00am 20 21 mph 1013.9mb 73f 70f
7:00am 17 21 mph 1013.4mb 73f 71f
6:00am 20 21 mph 1013mb 74f 72f
5:00am 20 21 mph 1012.3mb 74f 72f
4:00am 14 15 mph 1011.9mb 74f 73f
3:00am 14 15 mph 1012.5mb 74f 74f
2:00am 15 17 mph 1013.4mb 74f 74f
1:00am 15 16 mph 1013.9mb 74f 74f
12:00am 14 15 mph 1013.8mb 74f 74f
Fri 04/18 11:00pm 13 14 mph 1013.8mb 74f 74f
10:00pm 8 9 mph 1013.6mb 74f 71f
9:00pm 7 8 mph 1013.2mb 74f 70f
8:00pm 5 6 mph 1013.1mb 74f 70f
7:00pm 3 5 mph 1013.2mb 74f 70f
6:00pm  -  1 mph 1013.8mb 74f 70f
5:00pm 3 6 mph 1014.5mb 74f 70f
4:00pm 5 6 mph 1015.1mb 74f 68f
3:00pm 17 18 mph 1016.3mb 74f 68f
2:00pm 17 20 mph 1015.8mb 74f 76f
1:00pm 20 21 mph 1015.8mb 74f 76f
12:00pm 20 23 mph 1015.5mb 74f 78f
11:00am 18 22 mph 1015.9mb 74f 77f
10:00am 10 13 mph 1015.9mb 74f 74f
9:00am 13 16 mph 1015.9mb 74f 73f
8:00am 11 14 mph 1016.6mb 74f 72f
7:00am 13 18 mph 1016.5mb 74f 71f
6:00am 13 17 mph 1015.5mb 74f 71f
5:00am 15 18 mph 1015.5mb 74f 71f
4:00am 11 15 mph 1015.9mb 74f 71f
3:00am 13 16 mph 1016.7mb 74f 70f
2:00am 11 15 mph 1018.2mb 74f 71f
1:00am 11 15 mph 1018.5mb 74f 71f
12:00am 14 17 mph 1019mb 74f 71f
Thu 04/17 11:00pm 10 16 mph 1018.9mb 74f 71f
10:00pm 11 15 mph 1019.2mb 74f 71f
9:00pm 11 16 mph 1019.1mb 74f 69f
8:00pm 11 15 mph 1018.5mb 74f 70f
7:00pm 11 14 mph 1018mb 74f 69f
6:00pm 14 18 mph 1018.2mb 74f 76f
5:00pm 15 20 mph 1017.6mb 74f 76f
4:00pm 14 18 mph 1017.5mb 74f 76f
3:00pm 9 13 mph 1017.9mb 74f 83f
2:00pm 8 10 mph 1019mb 74f 82f
1:00pm 14 17 mph 1019.6mb 74f 81f
12:00pm 16 20 mph 1020.3mb 73f 79f
11:00am 11 17 mph 1020.5mb 73f 77f
10:00am 13 17 mph 1020mb 73f 73f
9:00am 13 16 mph 1019.7mb 73f 68f
8:00am 14 18 mph 1019.5mb 73f 67f
7:00am 10 15 mph 1019.3mb 73f 66f
6:00am 11 14 mph 1018.3mb 73f 65f
5:00am 13 15 mph 1017.9mb 73f 65f
4:00am 13 16 mph 1017.5mb 73f 66f
3:00am 15 18 mph 1018.1mb 74f 66f
2:00am 15 20 mph 1018.7mb 74f 66f
1:00am 14 17 mph 1019mb 74f 67f
12:00am 11 16 mph 1019.2mb 74f 68f
Wed 04/16 11:00pm 10 15 mph 1019.1mb 74f 69f
10:00pm 14 18 mph 1018.2mb 74f 71f
9:00pm 15 18 mph 1017.6mb 75f 73f
8:00pm 6 7 mph 1016.9mb 75f 75f
7:00pm 13 16 mph 1016.3mb 75f 76f
6:00pm 11 14 mph 1016.2mb 75f 75f
5:00pm 8 13 mph 1016.3mb 75f 74f
4:00pm 9 13 mph 1016.6mb 75f 72f
3:00pm 9 11 mph 1017.3mb 75f 72f
2:00pm 14 20 mph 1017.7mb 75f 69f
1:00pm 11 14 mph 1018.2mb 75f 66f
12:00pm 14 18 mph 1018.8mb 75f 63f